Terminal Aerodrome Forecast
Issued by NWS Pocatello, ID

Home | Current Version | Previous Version | Text Only | Print | Product List | Glossary On
Versions: 1 2 3 4 5 6 7 8 9 10 11 12 13 14 15 16 17 18 19 20 21 22 23 24 25 26 27 28 29 30 31 32
132
FTUS45 KPIH 242141 AAD
TAFIDA
TAF AMD
KIDA 242141Z 2422/2518 21013G22KT P6SM BKN008 OVC050
     FM242300 20013G23KT P6SM BKN012 BKN050
     FM251100 21006KT P6SM BKN010 OVC150
     FM251600 22008KT P6SM SCT010 BKN150=

USA.gov is the U.S. government's official web portal to all federal, state and local government web resources and services.